Time;durP1;ratioP1;P1;durP2;ratioP2;P2;SDS_P1;SDS_P2;PMS_P1;PMS_P2;Temp;Humidity;BMP_temperature;BMP_pressure;BME280_temperature;BME280_humidity;BME280_pressure;Samples;Min_cycle;Max_cycle;Signal;HPM_P1;HPM_P2
2023/12/08 07:23:08;;;;;;;;;18.25;13.25;;;;;15.85;63.66;100447.63;5176087;27;45440;-60
2023/12/08 07:25:33;;;;;;;;;13.75;13.75;;;;;16.13;62.14;100446.47;5158490;27;45320;-61
2023/12/08 07:27:59;;;;;;;;;11.25;9.50;;;;;16.54;60.91;100462.34;5158102;27;47464;-60
2023/12/08 07:30:24;;;;;;;;;12.00;10.00;;;;;16.61;59.55;100462.78;5158383;27;45265;-60
2023/12/08 07:32:50;;;;;;;;;9.75;8.50;;;;;16.66;59.81;100468.72;5158165;27;52394;-61
2023/12/08 07:35:15;;;;;;;;;17.25;14.00;;;;;16.60;59.16;100477.25;5158774;27;45331;-62
2023/12/08 07:37:41;;;;;;;;;16.75;13.25;;;;;16.82;58.68;100480.09;5158325;27;45328;-59
2023/12/08 07:40:07;;;;;;;;;15.50;14.75;;;;;16.86;58.43;100478.88;5158187;27;45574;-61
2023/12/08 07:42:33;;;;;;;;;14.00;11.00;;;;;17.10;57.67;100483.41;5157812;27;46793;-60
2023/12/08 07:44:58;;;;;;;;;15.00;12.25;;;;;17.15;57.71;100484.78;5158318;27;45527;-60
2023/12/08 07:47:23;;;;;;;;;13.25;9.50;;;;;17.07;57.34;100476.38;5158028;27;45250;-60
2023/12/08 07:49:49;;;;;;;;;12.00;10.25;;;;;17.21;57.03;100487.00;5146626;27;65954;-61
2023/12/08 07:54:44;;;;;;;;;16.50;11.00;;;;;17.07;56.86;100481.81;5102233;27;45859;-66
2023/12/08 07:57:09;;;;;;;;;10.50;10.50;;;;;17.20;56.60;100496.13;5111690;27;57709;-67
2023/12/08 07:59:35;;;;;;;;;12.50;10.00;;;;;16.98;56.70;100487.94;5115279;27;45280;-66
2023/12/08 08:02:00;;;;;;;;;16.25;16.00;;;;;17.18;56.66;100495.34;5112430;27;47209;-66
2023/12/08 08:04:25;;;;;;;;;11.75;9.00;;;;;17.30;56.16;100502.56;5114756;27;45359;-66
2023/12/08 08:06:51;;;;;;;;;10.25;8.25;;;;;17.35;55.92;100508.47;5116007;27;45329;-67
2023/12/08 08:09:18;;;;;;;;;11.00;10.75;;;;;17.13;55.83;100511.13;5110511;27;45432;-68
2023/12/08 08:11:43;;;;;;;;;16.25;9.75;;;;;17.21;55.75;100513.22;5114500;27;47473;-67
2023/12/08 08:14:09;;;;;;;;;11.75;10.00;;;;;17.27;56.22;100519.03;5115986;27;45474;-66
2023/12/08 08:16:34;;;;;;;;;10.50;8.00;;;;;17.18;56.09;100518.91;5116290;27;45511;-66
2023/12/08 08:18:59;;;;;;;;;11.00;11.00;;;;;17.33;55.67;100526.72;5110820;27;45463;-65
2023/12/08 08:21:25;;;;;;;;;16.00;12.25;;;;;17.31;55.28;100522.38;5110705;27;49738;-67
2023/12/08 08:23:50;;;;;;;;;15.75;10.25;;;;;17.44;55.61;100525.03;5103169;27;45305;-66
2023/12/08 08:26:16;;;;;;;;;9.50;9.50;;;;;17.53;55.22;100525.13;5102136;27;45332;-69
2023/12/08 08:28:41;;;;;;;;;12.75;10.50;;;;;17.27;55.58;100529.88;5101257;27;45534;-66
2023/12/08 08:31:07;;;;;;;;;14.50;9.25;;;;;17.35;55.63;100524.72;5100889;27;68154;-66
2023/12/08 08:33:33;;;;;;;;;9.00;9.00;;;;;17.48;55.19;100538.19;5101990;27;45380;-67
2023/12/08 08:35:58;;;;;;;;;12.50;10.75;;;;;17.58;55.16;100543.78;5102016;27;45180;-66
2023/12/08 08:38:23;;;;;;;;;10.00;9.00;;;;;17.22;55.90;100555.59;5101694;27;45544;-67
2023/12/08 08:40:49;;;;;;;;;10.00;9.75;;;;;17.23;55.74;100547.38;5101984;27;45401;-67
2023/12/08 08:43:14;;;;;;;;;11.25;10.75;;;;;17.50;55.42;100546.22;5100060;27;45397;-68
2023/12/08 08:45:40;;;;;;;;;9.75;9.75;;;;;17.54;55.09;100529.59;5101197;27;59748;-67
2023/12/08 08:48:05;;;;;;;;;10.25;10.25;;;;;17.67;54.88;100535.81;5101325;27;65354;-67
2023/12/08 08:50:30;;;;;;;;;10.75;10.75;;;;;17.81;54.70;100542.00;5101690;27;46269;-67
2023/12/08 08:52:56;;;;;;;;;11.50;9.00;;;;;17.89;54.58;100548.53;5101305;27;45377;-68
2023/12/08 08:55:21;;;;;;;;;16.50;11.00;;;;;17.87;54.20;100544.22;5095984;27;65927;-66
2023/12/08 08:57:47;;;;;;;;;14.50;11.00;;;;;17.82;54.13;100536.44;5092524;27;45635;-67
2023/12/08 09:00:14;;;;;;;;;11.00;10.00;;;;;17.78;54.40;100537.66;5102054;27;46140;-66
2023/12/08 09:02:41;;;;;;;;;13.25;11.75;;;;;17.99;54.06;100540.53;5102139;27;44751;-67
2023/12/08 09:05:07;;;;;;;;;13.25;12.00;;;;;17.94;53.53;100543.63;5100324;27;45421;-67
2023/12/08 09:07:32;;;;;;;;;15.00;11.25;;;;;17.88;54.51;100545.94;5100963;27;45196;-67
2023/12/08 09:09:58;;;;;;;;;12.50;12.50;;;;;17.76;54.45;100548.66;5097472;27;45486;-67
2023/12/08 09:12:23;;;;;;;;;18.25;10.00;;;;;17.96;53.85;100529.91;5101044;27;45219;-67
2023/12/08 09:14:49;;;;;;;;;16.50;11.75;;;;;18.14;53.61;100542.88;5101203;27;45632;-67
2023/12/08 09:17:14;;;;;;;;;20.00;16.25;;;;;18.12;53.76;100546.69;5100950;27;45239;-67
2023/12/08 09:19:39;;;;;;;;;23.00;13.50;;;;;18.23;53.51;100543.13;5101246;27;45320;-68
2023/12/08 09:22:05;;;;;;;;;12.00;12.00;;;;;18.22;53.23;100538.66;5100835;27;45384;-67
2023/12/08 09:24:30;;;;;;;;;16.50;14.50;;;;;18.24;53.23;100542.13;5101109;27;45318;-67
2023/12/08 09:26:56;;;;;;;;;11.75;10.50;;;;;18.29;53.33;100542.66;5100247;27;45318;-67
2023/12/08 09:29:21;;;;;;;;;14.50;13.00;;;;;18.31;53.28;100541.50;5095403;27;46092;-67
2023/12/08 09:31:47;;;;;;;;;9.00;7.25;;;;;18.40;52.74;100553.47;5099919;27;56914;-64
2023/12/08 09:34:12;;;;;;;;;20.25;16.25;;;;;18.40;52.39;100542.59;5100078;27;45603;-67
2023/12/08 09:36:37;;;;;;;;;12.25;10.25;;;;;18.49;52.46;100548.16;5100266;27;62219;-67
2023/12/08 09:39:05;;;;;;;;;17.25;13.00;;;;;18.52;52.21;100558.78;5099895;27;61983;-67
2023/12/08 09:41:31;;;;;;;;;14.25;12.25;;;;;18.54;52.40;100550.50;5114012;27;45443;-67
2023/12/08 09:44:03;;;;;;;;;17.25;13.00;;;;;18.61;51.97;100561.75;5101287;27;45453;-67
2023/12/08 09:46:30;;;;;;;;;21.75;13.25;;;;;18.78;51.75;100572.09;5100396;27;45399;-68
2023/12/08 09:48:58;;;;;;;;;7.25;5.25;;;;;18.86;51.53;100564.16;5100572;27;45599;-67
2023/12/08 09:51:24;;;;;;;;;12.25;8.75;;;;;18.80;51.71;100567.38;5100545;27;45459;-67
2023/12/08 09:53:50;;;;;;;;;12.00;11.75;;;;;18.79;51.62;100563.81;5100424;27;45495;-67
2023/12/08 09:56:18;;;;;;;;;12.75;10.00;;;;;18.81;51.48;100575.41;5098924;27;45425;-67
2023/12/08 09:58:44;;;;;;;;;14.75;13.00;;;;;18.73;51.48;100571.59;5100210;27;47319;-68
2023/12/08 10:01:13;;;;;;;;;17.75;12.75;;;;;18.84;51.25;100575.16;5100239;27;45408;-67
2023/12/08 10:03:40;;;;;;;;;15.25;13.75;;;;;18.83;51.26;100578.84;5100448;27;45346;-67
2023/12/08 10:06:07;;;;;;;;;15.25;12.00;;;;;18.73;51.59;100571.59;5100095;27;45499;-67
2023/12/08 10:08:33;;;;;;;;;15.00;13.75;;;;;18.83;51.49;100587.00;5098337;27;45472;-67
2023/12/08 10:10:59;;;;;;;;;20.00;11.50;;;;;18.80;51.29;100587.25;5107118;27;45376;-68
2023/12/08 10:13:24;;;;;;;;;15.00;12.75;;;;;18.77;51.43;100590.25;5100403;27;45431;-67
2023/12/08 10:15:50;;;;;;;;;11.00;9.50;;;;;18.49;51.67;100579.88;5100408;27;45371;-66
2023/12/08 10:18:25;;;;;;;;;11.75;11.50;;;;;18.64;51.34;100583.22;5100430;27;45309;-67
2023/12/08 10:20:50;;;;;;;;;8.50;8.50;;;;;18.71;51.05;100581.75;5099026;27;45450;-68
2023/12/08 10:23:22;;;;;;;;;14.25;10.00;;;;;18.63;51.01;100567.94;5100003;27;45365;-68
2023/12/08 10:25:48;;;;;;;;;12.25;10.25;;;;;18.65;50.94;100577.66;5100201;27;45392;-68
2023/12/08 10:28:13;;;;;;;;;8.75;5.25;;;;;18.57;51.24;100571.13;5100063;27;46190;-67
2023/12/08 10:30:46;;;;;;;;;12.00;11.00;;;;;18.81;50.90;100569.97;5099884;27;45380;-66
2023/12/08 10:33:19;;;;;;;;;9.50;9.00;;;;;18.68;50.96;100561.13;5099628;27;45289;-67
2023/12/08 10:35:45;;;;;;;;;18.00;10.75;;;;;18.76;50.80;100561.34;5100016;27;45809;-68
2023/12/08 10:38:11;;;;;;;;;15.00;11.50;;;;;18.90;50.60;100561.06;5099382;27;45381;-67
2023/12/08 10:40:44;;;;;;;;;6.00;6.00;;;;;19.05;50.39;100558.06;5109884;27;45311;-66
2023/12/08 10:43:09;;;;;;;;;9.50;7.25;;;;;19.09;50.11;100557.66;5102146;27;45497;-68
2023/12/08 10:45:35;;;;;;;;;8.75;6.00;;;;;18.93;50.68;100572.66;5098893;27;65976;-67
2023/12/08 10:48:02;;;;;;;;;10.75;9.00;;;;;19.02;50.56;100567.31;5099062;27;46357;-67
2023/12/08 10:50:28;;;;;;;;;10.50;9.50;;;;;19.07;50.47;100569.66;5099463;27;45350;-68
2023/12/08 10:52:54;;;;;;;;;7.75;7.75;;;;;19.26;50.12;100570.69;5099114;27;45263;-67
2023/12/08 10:55:19;;;;;;;;;12.50;9.50;;;;;19.25;49.81;100566.25;5097870;27;45326;-68
2023/12/08 10:57:48;;;;;;;;;10.00;9.00;;;;;19.38;49.79;100568.78;5099428;27;45635;-67
2023/12/08 11:00:18;;;;;;;;;4.00;4.00;;;;;19.39;48.99;100556.06;5099673;27;45314;-68
2023/12/08 11:02:48;;;;;;;;;6.00;6.00;;;;;19.52;49.40;100564.91;5099571;27;45403;-68
2023/12/08 11:05:22;;;;;;;;;9.50;6.75;;;;;19.40;49.34;100549.59;5098928;27;45427;-68
2023/12/08 11:07:51;;;;;;;;;6.50;5.00;;;;;19.58;49.19;100558.94;5107092;27;46452;-68
2023/12/08 11:10:18;;;;;;;;;3.00;1.00;;;;;19.99;47.88;100558.03;5099425;27;45180;-68
2023/12/08 11:12:53;;;;;;;;;10.25;6.50;;;;;20.50;47.37;100551.75;5098120;27;45532;-68
2023/12/08 11:15:21;;;;;;;;;7.75;6.00;;;;;20.56;46.24;100556.63;5099453;27;45530;-67
2023/12/08 11:17:53;;;;;;;;;8.25;6.25;;;;;20.45;46.48;100564.88;5097832;27;46067;-68
2023/12/08 11:20:18;;;;;;;;;10.25;4.00;;;;;20.56;46.29;100564.78;5099634;27;45420;-68
2023/12/08 11:22:46;;;;;;;;;8.75;5.75;;;;;20.70;46.58;100561.66;5098741;27;45466;-68
2023/12/08 11:25:36;;;;;;;;;7.75;5.00;;;;;20.73;45.85;100562.25;5098868;27;45365;-67
2023/12/08 11:28:12;;;;;;;;;7.75;5.00;;;;;20.66;45.90;100568.41;5092074;27;46367;-75
2023/12/08 11:30:51;;;;;;;;;8.50;5.25;;;;;20.67;45.69;100568.25;5098555;27;45387;-76
2023/12/08 11:33:31;;;;;;;;;5.75;4.25;;;;;20.62;45.66;100581.44;5099652;27;45367;-69
2023/12/08 11:36:07;;;;;;;;;7.75;5.00;;;;;20.67;46.06;100565.53;5099127;27;45227;-69
2023/12/08 11:38:33;;;;;;;;;10.25;5.25;;;;;20.66;45.56;100552.06;5098606;27;46180;-69
2023/12/08 11:40:58;;;;;;;;;12.50;8.25;;;;;20.64;45.58;100570.41;5098530;27;45389;-69
2023/12/08 11:43:25;;;;;;;;;6.25;5.00;;;;;20.58;46.09;100560.94;5099128;27;45363;-69
2023/12/08 11:45:50;;;;;;;;;13.50;7.75;;;;;20.83;45.46;100569.59;5099317;27;45384;-69
2023/12/08 11:48:16;;;;;;;;;8.50;8.25;;;;;21.02;45.48;100573.19;5098988;27;46171;-69
2023/12/08 11:50:41;;;;;;;;;18.00;13.50;;;;;21.11;45.30;100568.75;5098962;27;45434;-69
2023/12/08 11:53:07;;;;;;;;;14.00;12.75;;;;;21.20;44.75;100564.34;5099004;27;45251;-69
2023/12/08 11:55:32;;;;;;;;;10.75;9.25;;;;;21.11;44.87;100557.84;5086815;27;45324;-70
2023/12/08 11:58:00;;;;;;;;;7.00;7.00;;;;;21.00;44.89;100569.78;5098853;27;50194;-69
2023/12/08 12:00:28;;;;;;;;;7.50;6.50;;;;;21.09;44.83;100562.63;5102279;27;45490;-69
2023/12/08 12:02:55;;;;;;;;;5.75;3.00;;;;;21.02;45.03;100535.03;5102710;27;45625;-69
2023/12/08 12:05:21;;;;;;;;;10.50;7.50;;;;;21.27;44.94;100557.31;5102956;27;45356;-69
2023/12/08 12:07:49;;;;;;;;;6.50;4.00;;;;;21.50;45.34;100559.63;5101935;27;45414;-69
2023/12/08 12:10:17;;;;;;;;;5.00;5.00;;;;;21.41;44.40;100565.09;5102500;27;45294;-69
2023/12/08 12:12:54;;;;;;;;;1.25;1.00;;;;;21.21;44.18;100549.72;5102283;27;45330;-69
2023/12/08 12:15:21;;;;;;;;;5.00;3.00;;;;;20.96;45.32;100540.19;5102017;27;45566;-69
2023/12/08 12:17:47;;;;;;;;;7.50;6.00;;;;;21.27;45.24;100557.31;5102543;27;46351;-70
2023/12/08 12:20:13;;;;;;;;;6.00;6.00;;;;;21.03;44.92;100561.28;5102323;27;45343;-69
2023/12/08 12:22:39;;;;;;;;;8.50;6.00;;;;;21.30;44.77;100560.63;5101951;27;45456;-65
2023/12/08 12:25:06;;;;;;;;;3.25;2.25;;;;;21.29;44.50;100561.63;5102016;27;45308;-69
2023/12/08 12:27:31;;;;;;;;;8.75;7.25;;;;;21.31;44.80;100562.34;5101723;27;45301;-70
2023/12/08 12:29:56;;;;;;;;;6.50;6.00;;;;;21.23;44.50;100555.91;5101263;27;69770;-69
2023/12/08 12:32:22;;;;;;;;;8.25;4.75;;;;;21.27;44.33;100558.19;5102379;27;45625;-68
2023/12/08 12:34:47;;;;;;;;;3.75;2.75;;;;;21.27;44.82;100562.78;5101783;27;45435;-70
2023/12/08 12:37:13;;;;;;;;;14.25;6.50;;;;;21.01;45.06;100579.66;5101417;27;45246;-70
2023/12/08 12:39:38;;;;;;;;;10.25;7.25;;;;;21.20;45.32;100567.94;5102063;27;45388;-68
2023/12/08 12:42:05;;;;;;;;;6.75;5.75;;;;;21.22;44.51;100568.66;5101986;27;45981;-68
2023/12/08 12:44:47;;;;;;;;;5.50;5.50;;;;;21.24;44.65;100574.84;5101015;27;45371;-69
2023/12/08 12:47:20;;;;;;;;;10.25;5.75;;;;;21.34;44.52;100574.84;5101842;27;46144;-68
2023/12/08 12:50:00;;;;;;;;;4.25;3.75;;;;;21.29;44.23;100578.00;5112698;27;45411;-70
2023/12/08 12:52:27;;;;;;;;;6.75;4.00;;;;;21.46;44.37;100580.00;5099307;27;45425;-70
2023/12/08 12:54:54;;;;;;;;;6.25;4.75;;;;;21.66;43.42;100580.00;5089610;27;45441;-71
2023/12/08 12:57:44;;;;;;;;;6.50;4.25;;;;;21.65;43.53;100586.47;5099703;27;45347;-71
2023/12/08 13:00:12;;;;;;;;;3.00;3.00;;;;;21.42;43.25;100575.84;5100765;27;45377;-69
2023/12/08 13:02:38;;;;;;;;;5.25;4.25;;;;;21.51;43.52;100579.59;5101004;27;45341;-70
2023/12/08 13:05:06;;;;;;;;;6.75;3.00;;;;;21.21;43.79;100585.16;5100868;27;45215;-71
2023/12/08 13:07:31;;;;;;;;;6.25;3.00;;;;;21.25;43.53;100582.03;5093308;27;46246;-65
2023/12/08 13:09:57;;;;;;;;;2.25;2.00;;;;;21.20;43.91;100591.63;5090207;27;45446;-64
2023/12/08 13:12:22;;;;;;;;;3.50;2.50;;;;;21.20;44.14;100589.75;5100960;27;45248;-64
2023/12/08 13:14:48;;;;;;;;;7.25;2.75;;;;;21.04;44.11;100590.28;5100536;27;63233;-65
2023/12/08 13:17:14;;;;;;;;;5.25;2.75;;;;;21.29;43.81;100602.53;5100591;27;47571;-65
2023/12/08 13:19:39;;;;;;;;;2.50;2.50;;;;;21.49;43.83;100593.38;5100676;27;45468;-64
2023/12/08 13:22:04;;;;;;;;;3.50;3.25;;;;;21.48;43.15;100593.50;5098971;27;64024;-65
2023/12/08 13:24:29;;;;;;;;;2.75;2.75;;;;;21.56;43.40;100601.81;5100890;27;45428;-65
2023/12/08 13:26:55;;;;;;;;;5.00;3.75;;;;;21.52;43.58;100600.41;5100010;27;69912;-65
2023/12/08 13:29:20;;;;;;;;;5.50;1.50;;;;;21.53;43.08;100602.09;5100780;27;52559;-65
2023/12/08 13:31:45;;;;;;;;;4.50;2.75;;;;;21.50;43.03;100607.88;5100616;27;47274;-64
2023/12/08 13:34:11;;;;;;;;;4.25;3.00;;;;;21.25;43.71;100612.03;5093528;27;62462;-64
2023/12/08 13:36:36;;;;;;;;;7.00;2.00;;;;;21.13;44.12;100616.69;5095575;27;60697;-64
2023/12/08 13:39:03;;;;;;;;;3.25;3.25;;;;;21.09;44.15;100623.44;5100599;27;45730;-64
2023/12/08 13:41:29;;;;;;;;;4.50;4.25;;;;;21.18;44.27;100610.84;5099968;27;45463;-65
2023/12/08 13:43:54;;;;;;;;;5.50;4.00;;;;;21.51;43.85;100604.13;5100323;27;45303;-65
2023/12/08 13:46:19;;;;;;;;;3.00;3.00;;;;;21.58;43.78;100607.16;5100275;27;49140;-65
2023/12/08 13:48:45;;;;;;;;;7.00;3.00;;;;;21.57;43.42;100609.00;5100168;27;62958;-65
2023/12/08 13:51:10;;;;;;;;;2.25;2.25;;;;;21.31;44.16;100616.91;5098672;27;45348;-64
2023/12/08 13:53:36;;;;;;;;;3.75;3.75;;;;;21.50;44.05;100616.06;5099967;27;53324;-64
2023/12/08 13:56:01;;;;;;;;;4.25;3.00;;;;;21.58;43.75;100618.91;5099453;27;68358;-64
2023/12/08 13:58:26;;;;;;;;;7.00;3.75;;;;;21.62;43.40;100623.06;5098909;27;45240;-65
2023/12/08 14:00:52;;;;;;;;;6.00;4.25;;;;;21.56;43.93;100625.53;5098325;27;55136;-65
2023/12/08 14:03:17;;;;;;;;;4.00;3.00;;;;;21.55;43.56;100627.38;5094796;27;45347;-65
2023/12/08 14:05:44;;;;;;;;;13.00;6.00;;;;;21.62;43.84;100628.53;5099528;27;47077;-64
2023/12/08 14:08:09;;;;;;;;;3.75;3.75;;;;;21.56;43.49;100628.25;5099326;27;45387;-65
2023/12/08 14:10:35;;;;;;;;;7.00;5.25;;;;;21.59;43.74;100628.84;5093960;27;45421;-65
2023/12/08 14:13:00;;;;;;;;;7.50;4.50;;;;;21.71;43.60;100633.13;5099053;27;45574;-65
2023/12/08 14:15:26;;;;;;;;;5.75;4.50;;;;;21.74;43.80;100626.53;5100109;27;45862;-64
2023/12/08 14:17:51;;;;;;;;;7.25;4.00;;;;;21.83;43.73;100633.84;5099093;27;45386;-64
2023/12/08 14:20:16;;;;;;;;;10.50;5.25;;;;;21.82;43.59;100632.13;5099698;27;45902;-64
2023/12/08 14:22:42;;;;;;;;;5.00;4.50;;;;;21.58;43.77;100628.97;5099187;27;66478;-64
2023/12/08 14:25:07;;;;;;;;;4.25;4.25;;;;;21.48;43.94;100637.16;5101139;27;68237;-63
2023/12/08 14:27:32;;;;;;;;;5.00;4.00;;;;;21.48;44.00;100639.88;5099461;27;45384;-64
2023/12/08 14:29:57;;;;;;;;;6.50;4.00;;;;;21.47;44.11;100649.94;5099553;27;45315;-64
2023/12/08 14:32:23;;;;;;;;;7.00;4.75;;;;;21.61;43.97;100658.66;5099147;27;66082;-64
2023/12/08 14:34:48;;;;;;;;;10.00;6.00;;;;;21.59;44.19;100657.97;5099942;27;46104;-64
2023/12/08 14:37:13;;;;;;;;;3.00;3.00;;;;;21.63;43.84;100670.31;5098700;27;64254;-64
2023/12/08 14:39:39;;;;;;;;;6.25;4.25;;;;;21.58;43.72;100681.66;5097621;27;67855;-63
2023/12/08 14:42:04;;;;;;;;;7.75;4.00;;;;;21.48;44.15;100673.47;5099614;27;45290;-63
2023/12/08 14:44:29;;;;;;;;;6.75;4.00;;;;;21.59;44.27;100671.63;5099147;27;46145;-63
2023/12/08 14:46:55;;;;;;;;;4.75;3.00;;;;;21.69;43.85;100680.69;5099888;27;45258;-63
2023/12/08 14:49:20;;;;;;;;;6.00;3.50;;;;;21.76;44.10;100666.31;5097733;27;62693;-62
2023/12/08 14:51:46;;;;;;;;;5.75;4.75;;;;;21.70;43.43;100668.72;5099826;27;45481;-63
2023/12/08 14:54:11;;;;;;;;;2.50;2.50;;;;;21.70;43.27;100675.06;5088340;27;47544;-63
2023/12/08 14:56:41;;;;;;;;;5.50;4.00;;;;;21.64;43.60;100666.59;5086951;27;45256;-63
2023/12/08 14:59:06;;;;;;;;;7.00;5.25;;;;;21.74;44.02;100681.09;5099780;27;45360;-62
2023/12/08 15:01:32;;;;;;;;;7.25;4.50;;;;;21.68;43.59;100678.94;5097740;27;45446;-64
2023/12/08 15:03:57;;;;;;;;;5.75;3.25;;;;;21.65;43.31;100680.09;5097522;27;61888;-63
2023/12/08 15:06:22;;;;;;;;;4.50;4.50;;;;;21.69;43.71;100686.13;5099075;27;59986;-63
2023/12/08 15:08:48;;;;;;;;;4.00;3.25;;;;;21.66;43.45;100680.97;5098910;27;48509;-63
2023/12/08 15:11:13;;;;;;;;;5.75;4.00;;;;;21.72;43.19;100670.31;5099421;27;45592;-63
2023/12/08 15:13:38;;;;;;;;;4.25;4.25;;;;;21.63;43.51;100687.56;5099307;27;46276;-63
2023/12/08 15:16:04;;;;;;;;;3.75;3.00;;;;;21.72;43.77;100691.28;5098715;27;66781;-64
2023/12/08 15:18:30;;;;;;;;;3.50;2.50;;;;;21.70;42.97;100683.25;5097619;27;45375;-63
2023/12/08 15:20:55;;;;;;;;;8.00;3.75;;;;;21.69;43.61;100694.31;5098502;27;64680;-63
2023/12/08 15:23:20;;;;;;;;;4.00;4.00;;;;;21.61;43.51;100703.19;5098355;27;49156;-63
2023/12/08 15:25:46;;;;;;;;;3.50;3.25;;;;;21.70;43.32;100712.38;5097726;27;45292;-64
2023/12/08 15:28:11;;;;;;;;;5.25;4.00;;;;;21.72;43.32;100704.94;5099386;27;45273;-63
2023/12/08 15:30:37;;;;;;;;;6.00;5.25;;;;;21.59;43.45;100698.91;5099236;27;45356;-63
2023/12/08 15:33:03;;;;;;;;;4.00;3.25;;;;;21.63;43.63;100711.25;5100274;27;46286;-62
2023/12/08 15:35:29;;;;;;;;;10.00;5.75;;;;;21.63;43.83;100711.25;5102503;27;45287;-63
2023/12/08 15:37:54;;;;;;;;;7.25;5.25;;;;;21.59;43.59;100709.81;5101908;27;45443;-63
2023/12/08 15:40:19;;;;;;;;;7.75;5.25;;;;;21.65;43.76;100703.78;5100133;27;58931;-63
2023/12/08 15:42:45;;;;;;;;;7.00;4.00;;;;;21.77;43.88;100711.72;5101591;27;62760;-62
2023/12/08 15:45:11;;;;;;;;;6.00;4.75;;;;;21.71;43.73;100714.13;5100217;27;45405;-64
2023/12/08 15:47:37;;;;;;;;;6.00;5.75;;;;;21.59;43.60;100716.13;5095069;27;45506;-62
2023/12/08 15:50:03;;;;;;;;;4.50;4.50;;;;;21.60;43.51;100706.09;5095468;27;45432;-64
2023/12/08 15:52:30;;;;;;;;;8.00;5.25;;;;;21.58;43.67;100710.81;5101208;27;45393;-63
2023/12/08 15:54:55;;;;;;;;;5.00;5.00;;;;;21.67;43.78;100715.44;5101319;27;45506;-64
2023/12/08 15:57:20;;;;;;;;;4.75;4.75;;;;;21.63;43.88;100725.75;5101267;27;45418;-62
2023/12/08 15:59:45;;;;;;;;;10.50;7.50;;;;;21.51;43.75;100710.53;5101973;27;55504;-63
2023/12/08 16:02:11;;;;;;;;;4.50;4.25;;;;;21.38;43.15;100705.31;5102459;27;45238;-63
2023/12/08 16:04:36;;;;;;;;;4.00;3.25;;;;;21.22;43.28;100715.91;5102554;27;45396;-62
2023/12/08 16:07:02;;;;;;;;;3.75;3.50;;;;;21.37;43.04;100716.38;5102184;27;54422;-63
2023/12/08 16:09:27;;;;;;;;;3.50;3.25;;;;;21.28;42.34;100719.94;5102356;27;45468;-62
2023/12/08 16:11:53;;;;;;;;;5.00;4.00;;;;;21.19;42.47;100716.19;5101976;27;59689;-63
2023/12/08 16:14:18;;;;;;;;;2.00;2.00;;;;;21.13;42.95;100719.44;5102066;27;64321;-63
2023/12/08 16:16:43;;;;;;;;;5.00;3.75;;;;;21.20;43.10;100712.44;5102753;27;45689;-64
2023/12/08 16:19:09;;;;;;;;;6.50;3.00;;;;;21.24;42.54;100722.09;5102216;27;45463;-64
2023/12/08 16:21:34;;;;;;;;;10.25;7.25;;;;;21.22;42.28;100745.03;5091342;27;46940;-63
2023/12/08 16:24:00;;;;;;;;;8.75;6.25;;;;;21.30;42.44;100742.47;5092793;27;45358;-63
2023/12/08 16:26:26;;;;;;;;;4.00;3.25;;;;;21.21;42.56;100748.75;5094428;27;45387;-63
2023/12/08 16:28:52;;;;;;;;;1.75;1.75;;;;;21.21;42.61;100759.66;5102171;27;45555;-64
2023/12/08 16:31:18;;;;;;;;;4.25;3.00;;;;;21.20;42.78;100745.16;5101721;27;45685;-64
2023/12/08 16:33:44;;;;;;;;;2.00;2.00;;;;;21.15;42.52;100745.56;5100723;27;45246;-64
2023/12/08 16:36:10;;;;;;;;;4.00;2.75;;;;;21.15;42.98;100745.56;5102213;27;45349;-63
2023/12/08 16:38:37;;;;;;;;;2.25;2.25;;;;;20.98;42.87;100750.81;5100356;27;45340;-62
2023/12/08 16:41:03;;;;;;;;;4.25;4.25;;;;;20.96;43.33;100760.97;5098544;27;45413;-63
2023/12/08 16:43:29;;;;;;;;;7.50;2.75;;;;;20.84;43.48;100764.81;5092394;27;45406;-63
2023/12/08 16:45:55;;;;;;;;;4.75;2.25;;;;;20.83;43.63;100750.31;5102058;27;45416;-63
2023/12/08 16:48:20;;;;;;;;;4.75;2.75;;;;;20.82;43.40;100764.06;5102037;27;45325;-63
2023/12/08 16:50:45;;;;;;;;;5.00;3.50;;;;;20.73;44.11;100795.72;5101406;27;59232;-64
2023/12/08 16:53:11;;;;;;;;;4.00;4.00;;;;;20.74;43.97;100795.56;5101326;27;48968;-63
2023/12/08 16:55:36;;;;;;;;;5.50;3.00;;;;;20.71;44.08;100784.94;5086276;27;45381;-63
2023/12/08 16:58:02;;;;;;;;;4.25;3.00;;;;;20.74;44.12;100787.41;5100443;27;53059;-64
2023/12/08 17:00:27;;;;;;;;;3.00;3.00;;;;;20.78;44.20;100782.53;5101420;27;45498;-63
2023/12/08 17:02:53;;;;;;;;;4.75;4.00;;;;;20.72;44.08;100796.69;5099773;27;45522;-63
2023/12/08 17:05:18;;;;;;;;;4.75;4.75;;;;;20.63;44.38;100789.34;5098262;27;61873;-63
2023/12/08 17:07:43;;;;;;;;;4.50;4.50;;;;;20.67;44.26;100788.09;5099605;27;51793;-63
2023/12/08 17:10:09;;;;;;;;;5.00;5.00;;;;;20.55;44.58;100816.38;5100632;27;45356;-63
2023/12/08 17:12:34;;;;;;;;;5.25;3.25;;;;;20.45;44.85;100816.28;5100305;27;45294;-64
2023/12/08 17:14:59;;;;;;;;;9.75;5.00;;;;;20.51;44.85;100828.50;5100456;27;51845;-63
2023/12/08 17:17:25;;;;;;;;;7.75;6.25;;;;;20.48;44.95;100829.66;5101223;27;45294;-63
2023/12/08 17:19:50;;;;;;;;;4.00;4.00;;;;;20.37;45.03;100821.53;5099147;27;63905;-64
2023/12/08 17:22:15;;;;;;;;;5.00;5.00;;;;;20.21;45.26;100829.25;5100913;27;45361;-63
2023/12/08 17:24:41;;;;;;;;;5.00;4.00;;;;;20.17;45.27;100835.94;5100026;27;45335;-63
2023/12/08 17:27:06;;;;;;;;;6.00;6.00;;;;;20.32;45.19;100829.22;5101294;27;45453;-62
2023/12/08 17:29:31;;;;;;;;;6.25;6.00;;;;;20.20;45.07;100828.38;5101191;27;46208;-64
2023/12/08 17:31:57;;;;;;;;;7.00;6.00;;;;;20.30;45.25;100831.19;5100901;27;45324;-63
2023/12/08 17:34:22;;;;;;;;;11.00;5.75;;;;;20.39;45.29;100833.16;5101206;27;45533;-63
2023/12/08 17:36:48;;;;;;;;;5.25;5.00;;;;;20.37;44.88;100827.84;5101072;27;45394;-64
2023/12/08 17:39:13;;;;;;;;;5.00;3.25;;;;;19.99;45.57;100835.63;5100905;27;45430;-64
2023/12/08 17:41:40;;;;;;;;;5.25;4.00;;;;;19.88;45.54;100828.38;5100803;27;45294;-64
2023/12/08 17:44:06;;;;;;;;;4.00;4.00;;;;;19.96;45.61;100830.47;5101409;27;45360;-64
2023/12/08 17:46:31;;;;;;;;;3.00;3.00;;;;;20.16;45.35;100834.25;5100585;27;45305;-64
2023/12/08 17:48:56;;;;;;;;;4.75;4.50;;;;;20.10;45.44;100835.59;5100093;27;67344;-64
2023/12/08 17:51:21;;;;;;;;;5.00;4.50;;;;;20.17;45.37;100835.94;5099687;27;73149;-64
2023/12/08 17:53:47;;;;;;;;;4.00;3.00;;;;;20.08;45.29;100844.88;5099946;27;60511;-64
2023/12/08 17:56:14;;;;;;;;;4.50;4.50;;;;;19.96;45.60;100853.09;5099151;27;53118;-63
2023/12/08 17:58:41;;;;;;;;;3.75;3.75;;;;;19.86;45.87;100846.69;5100579;27;46140;-63
2023/12/08 18:01:07;;;;;;;;;5.00;4.00;;;;;19.85;45.58;100841.38;5100257;27;45441;-62
2023/12/08 18:03:32;;;;;;;;;4.50;4.50;;;;;19.51;46.37;100846.00;5100861;27;45429;-63
2023/12/08 18:05:57;;;;;;;;;5.75;5.75;;;;;19.43;46.29;100838.44;5100622;27;45309;-65
2023/12/08 18:08:23;;;;;;;;;8.50;5.25;;;;;19.51;46.30;100832.41;5099832;27;67732;-63
2023/12/08 18:10:48;;;;;;;;;3.00;3.00;;;;;19.53;46.24;100844.88;5100488;27;45285;-68
2023/12/08 18:13:13;;;;;;;;;6.00;6.00;;;;;19.53;46.30;100833.13;5100688;27;45332;-65
2023/12/08 18:15:39;;;;;;;;;5.25;3.00;;;;;19.58;46.36;100845.34;5099970;27;65064;-60
2023/12/08 18:18:04;;;;;;;;;8.25;8.25;;;;;19.40;46.81;100838.66;5099809;27;74376;-63
2023/12/08 18:20:30;;;;;;;;;9.50;7.50;;;;;19.34;46.76;100835.59;5100522;27;45734;-61
2023/12/08 18:22:55;;;;;;;;;8.25;5.75;;;;;19.45;46.38;100835.59;5100538;27;45360;-62
2023/12/08 18:25:20;;;;;;;;;8.25;8.00;;;;;19.53;46.24;100836.72;5100299;27;45393;-58
2023/12/08 18:27:46;;;;;;;;;8.00;8.00;;;;;19.41;46.57;100831.38;5099727;27;64735;-61
2023/12/08 18:30:12;;;;;;;;;5.00;5.00;;;;;19.50;46.39;100827.94;5100285;27;45294;-62
2023/12/08 18:32:38;;;;;;;;;5.50;5.25;;;;;19.39;46.71;100828.81;5100487;27;45365;-61
2023/12/08 18:35:04;;;;;;;;;9.00;9.00;;;;;19.38;46.48;100827.06;5099598;27;45700;-62
2023/12/08 18:37:29;;;;;;;;;7.00;6.00;;;;;19.61;46.25;100828.81;5099774;27;46337;-62
2023/12/08 18:39:55;;;;;;;;;16.50;14.25;;;;;19.56;46.15;100827.47;5097839;27;45303;-63
2023/12/08 18:42:20;;;;;;;;;12.50;9.75;;;;;19.51;46.12;100826.94;5095946;27;45487;-62